Aviation Digital Data Service (ADDS)

Output produced by METARs form (1056 UTC 17 June 2019)
found at http://www.aviationweather.gov/metar/data/
 
METAR text: ZJSY 171000Z 09005MPS 9999 FEW020 30/27 Q1004 NOSIG
Conditions at: ZJSY (SANYA/FENGHUANG , CN) observed 1000 UTC 17 June 2019
Temperature: 30.0°C (86°F)
Dewpoint: 27.0°C (81°F) [RH = 84%]
Pressure (altimeter): 29.65 inches Hg (1004.0 mb)
Winds: from the E (90 degrees) at 12 MPH (10 knots; 5.1 m/s)
Visibility: 6 or more miles (10+ km)
Ceiling: at least 12,000 feet AGL
Clouds: few clouds at 2000 feet AGL
Weather: no significant weather observed at this time

METAR text: ZJSY 170900Z 08005MPS 9999 FEW020 30/27 Q1004 NOSIG
Conditions at: ZJSY (SANYA/FENGHUANG , CN) observed 0900 UTC 17 June 2019
Temperature: 30.0°C (86°F)
Dewpoint: 27.0°C (81°F) [RH = 84%]
Pressure (altimeter): 29.65 inches Hg (1004.0 mb)
Winds: from the E (80 degrees) at 12 MPH (10 knots; 5.1 m/s)
Visibility: 6 or more miles (10+ km)
Ceiling: at least 12,000 feet AGL
Clouds: few clouds at 2000 feet AGL
Weather: no significant weather observed at this time

METAR text: ZJSY 170800Z 14002MPS 100V210 9999 FEW020 30/28 Q1004 NOSIG
Conditions at: ZJSY (SANYA/FENGHUANG , CN) observed 0800 UTC 17 June 2019
Temperature: 30.0°C (86°F)
Dewpoint: 28.0°C (82°F) [RH = 89%]
Pressure (altimeter): 29.65 inches Hg (1004.0 mb)
Winds: from the SE (140 degrees) at 5 MPH (4 knots; 2.1 m/s)
Visibility: 6 or more miles (10+ km)
Ceiling: at least 12,000 feet AGL
Clouds: few clouds at 2000 feet AGL
Weather: no significant weather observed at this time

METAR text: ZJSY 170700Z 19002MPS 140V240 9999 FEW020 FEW026TCU 30/28 Q1004 NOSIG
Conditions at: ZJSY (SANYA/FENGHUANG , CN) observed 0700 UTC 17 June 2019
Temperature: 30.0°C (86°F)
Dewpoint: 28.0°C (82°F) [RH = 89%]
Pressure (altimeter): 29.65 inches Hg (1004.0 mb)
Winds: from the S (190 degrees) at 5 MPH (4 knots; 2.1 m/s)
Visibility: 6 or more miles (10+ km)
Ceiling: at least 12,000 feet AGL
Clouds: few clouds at 2000 feet AGL
few clouds at 2600 feet AGL
Weather: no significant weather observed at this time

METAR text: ZJSY 170600Z 19002MPS 140V260 9999 SCT015 FEW026CB 31/28 Q1005 NOSIG
Conditions at: ZJSY (SANYA/FENGHUANG , CN) observed 0600 UTC 17 June 2019
Temperature: 31.0°C (88°F)
Dewpoint: 28.0°C (82°F) [RH = 84%]
Pressure (altimeter): 29.68 inches Hg (1005.0 mb)
Winds: from the S (190 degrees) at 5 MPH (4 knots; 2.1 m/s)
Visibility: 6 or more miles (10+ km)
Ceiling: at least 12,000 feet AGL
Clouds: scattered clouds at 1500 feet AGL
few clouds at 2600 feet AGL
Weather: no significant weather observed at this time

METAR text: ZJSY 170500Z 20002MPS 140V240 9999 SCT015 31/27 Q1005 NOSIG
Conditions at: ZJSY (SANYA/FENGHUANG , CN) observed 0500 UTC 17 June 2019
Temperature: 31.0°C (88°F)
Dewpoint: 27.0°C (81°F) [RH = 79%]
Pressure (altimeter): 29.68 inches Hg (1005.0 mb)
Winds: from the SSW (200 degrees) at 5 MPH (4 knots; 2.1 m/s)
Visibility: 6 or more miles (10+ km)
Ceiling: at least 12,000 feet AGL
Clouds: scattered clouds at 1500 feet AGL
Weather: no significant weather observed at this time

METAR text: ZJSY 170400Z 15002MPS 070V240 9999 SCT015 32/28 Q1005 NOSIG
Conditions at: ZJSY (SANYA/FENGHUANG , CN) observed 0400 UTC 17 June 2019
Temperature: 32.0°C (90°F)
Dewpoint: 28.0°C (82°F) [RH = 80%]
Pressure (altimeter): 29.68 inches Hg (1005.0 mb)
Winds: from the SSE (150 degrees) at 5 MPH (4 knots; 2.1 m/s)
Visibility: 6 or more miles (10+ km)
Ceiling: at least 12,000 feet AGL
Clouds: scattered clouds at 1500 feet AGL
Weather: no significant weather observed at this time

METAR text: ZJSY 170300Z VRB01MPS 9999 SCT033 31/28 Q1005 NOSIG
Conditions at: ZJSY (SANYA/FENGHUANG , CN) observed 0300 UTC 17 June 2019
Temperature: 31.0°C (88°F)
Dewpoint: 28.0°C (82°F) [RH = 84%]
Pressure (altimeter): 29.68 inches Hg (1005.0 mb)
Winds: variable direction winds at 2 MPH (2 knots; 1.0 m/s)
Visibility: 6 or more miles (10+ km)
Ceiling: at least 12,000 feet AGL
Clouds: scattered clouds at 3300 feet AGL
Weather: no significant weather observed at this time

METAR text: ZJSY 170200Z 09002MPS 040V170 9999 SCT015 30/28 Q1006 NOSIG
Conditions at: ZJSY (SANYA/FENGHUANG , CN) observed 0200 UTC 17 June 2019
Temperature: 30.0°C (86°F)
Dewpoint: 28.0°C (82°F) [RH = 89%]
Pressure (altimeter): 29.70 inches Hg (1006.0 mb)
Winds: from the E (90 degrees) at 5 MPH (4 knots; 2.1 m/s)
Visibility: 6 or more miles (10+ km)
Ceiling: at least 12,000 feet AGL
Clouds: scattered clouds at 1500 feet AGL
Weather: no significant weather observed at this time

METAR text: ZJSY 170100Z 12002MPS 080V150 9999 SCT014 30/28 Q1005 NOSIG
Conditions at: ZJSY (SANYA/FENGHUANG , CN) observed 0100 UTC 17 June 2019
Temperature: 30.0°C (86°F)
Dewpoint: 28.0°C (82°F) [RH = 89%]
Pressure (altimeter): 29.68 inches Hg (1005.0 mb)
Winds: from the ESE (120 degrees) at 5 MPH (4 knots; 2.1 m/s)
Visibility: 6 or more miles (10+ km)
Ceiling: at least 12,000 feet AGL
Clouds: scattered clouds at 1400 feet AGL
Weather: no significant weather observed at this time

METAR text: ZJSY 170000Z VRB01MPS 9999 SCT014 28/26 Q1005 NOSIG
Conditions at: ZJSY (SANYA/FENGHUANG , CN) observed 0000 UTC 17 June 2019
Temperature: 28.0°C (82°F)
Dewpoint: 26.0°C (79°F) [RH = 89%]
Pressure (altimeter): 29.68 inches Hg (1005.0 mb)
Winds: variable direction winds at 2 MPH (2 knots; 1.0 m/s)
Visibility: 6 or more miles (10+ km)
Ceiling: at least 12,000 feet AGL
Clouds: scattered clouds at 1400 feet AGL
Weather: no significant weather observed at this time

METAR text: ZJSY 162300Z 36002MPS 340V050 9999 -RA FEW013 SCT050 27/25 Q1005 NOSIG
Conditions at: ZJSY (SANYA/FENGHUANG , CN) observed 2300 UTC 16 June 2019
Temperature: 27.0°C (81°F)
Dewpoint: 25.0°C (77°F) [RH = 89%]
Pressure (altimeter): 29.68 inches Hg (1005.0 mb)
Winds: from the N (360 degrees) at 5 MPH (4 knots; 2.1 m/s)
Visibility: 6 or more miles (10+ km)
Ceiling: at least 12,000 feet AGL
Clouds: few clouds at 1300 feet AGL
scattered clouds at 5000 feet AGL
Weather: -RA  (light rain)

METAR text: ZJSY 162200Z 36002MPS 320V060 9999 -RA FEW013 SCT050 27/25 Q1005 NOSIG
Conditions at: ZJSY (SANYA/FENGHUANG , CN) observed 2200 UTC 16 June 2019
Temperature: 27.0°C (81°F)
Dewpoint: 25.0°C (77°F) [RH = 89%]
Pressure (altimeter): 29.68 inches Hg (1005.0 mb)
Winds: from the N (360 degrees) at 5 MPH (4 knots; 2.1 m/s)
Visibility: 6 or more miles (10+ km)
Ceiling: at least 12,000 feet AGL
Clouds: few clouds at 1300 feet AGL
scattered clouds at 5000 feet AGL
Weather: -RA  (light rain)

METAR text: ZJSY 162100Z 09004MPS 9999 FEW011 SCT017 BKN040 27/26 Q1005 NOSIG
Conditions at: ZJSY (SANYA/FENGHUANG , CN) observed 2100 UTC 16 June 2019
Temperature: 27.0°C (81°F)
Dewpoint: 26.0°C (79°F) [RH = 94%]
Pressure (altimeter): 29.68 inches Hg (1005.0 mb)
Winds: from the E (90 degrees) at 9 MPH (8 knots; 4.1 m/s)
Visibility: 6 or more miles (10+ km)
Ceiling: 4000 feet AGL
Clouds: few clouds at 1100 feet AGL
scattered clouds at 1700 feet AGL
broken clouds at 4000 feet AGL
Weather: no significant weather observed at this time

METAR text: ZJSY 162000Z VRB01MPS 9999 -RA SCT015 BKN066 26/25 Q1004 RETS NOSIG
Conditions at: ZJSY (SANYA/FENGHUANG , CN) observed 2000 UTC 16 June 2019
Temperature: 26.0°C (79°F)
Dewpoint: 25.0°C (77°F) [RH = 94%]
Pressure (altimeter): 29.65 inches Hg (1004.0 mb)
Winds: variable direction winds at 2 MPH (2 knots; 1.0 m/s)
Visibility: 6 or more miles (10+ km)
Ceiling: 6600 feet AGL
Clouds: scattered clouds at 1500 feet AGL
broken clouds at 6600 feet AGL
Weather: -RA  (light rain)

METAR text: ZJSY 161900Z 34005MPS 320V020 8000 -TSRA FEW017 FEW030CB SCT033 BKN066 26/25 Q1005 RESHRA BECMG AT2020 NSW
Conditions at: ZJSY (SANYA/FENGHUANG , CN) observed 1900 UTC 16 June 2019
Temperature: 26.0°C (79°F)
Dewpoint: 25.0°C (77°F) [RH = 94%]
Pressure (altimeter): 29.68 inches Hg (1005.0 mb)
Winds: from the NNW (340 degrees) at 12 MPH (10 knots; 5.1 m/s)
Visibility: 5 miles ( 8 km)
Ceiling: 6600 feet AGL
Clouds: few clouds at 1700 feet AGL
few clouds at 3000 feet AGL
scattered clouds at 3300 feet AGL
broken clouds at 6600 feet AGL
Weather: -TSRA  (light rain associated with thunderstorm(s))

METAR text: ZJSY 161800Z 17005MPS 140V220 4000 SHRA SCT011 FEW028CB BKN033 27/26 Q1005 BECMG AT1840 NSW
Conditions at: ZJSY (SANYA/FENGHUANG , CN) observed 1800 UTC 16 June 2019
Temperature: 27.0°C (81°F)
Dewpoint: 26.0°C (79°F) [RH = 94%]
Pressure (altimeter): 29.68 inches Hg (1005.0 mb)
Winds: from the S (170 degrees) at 12 MPH (10 knots; 5.1 m/s)
Visibility: 2.49 miles (4.01 km)
Ceiling: 3300 feet AGL
Clouds: scattered clouds at 1100 feet AGL
few clouds at 2800 feet AGL
broken clouds at 3300 feet AGL
Weather: SHRA  (rain showers)

METAR text: ZJSY 161700Z 16002MPS 5000 SHRA SCT013 FEW028CB BKN040 28/27 Q1005 BECMG AT1710 NSW
Conditions at: ZJSY (SANYA/FENGHUANG , CN) observed 1700 UTC 16 June 2019
Temperature: 28.0°C (82°F)
Dewpoint: 27.0°C (81°F) [RH = 94%]
Pressure (altimeter): 29.68 inches Hg (1005.0 mb)
Winds: from the SSE (160 degrees) at 5 MPH (4 knots; 2.1 m/s)
Visibility: 3 miles ( 5 km)
Ceiling: 4000 feet AGL
Clouds: scattered clouds at 1300 feet AGL
few clouds at 2800 feet AGL
broken clouds at 4000 feet AGL
Weather: SHRA  (rain showers)

METAR text: ZJSY 161600Z 00000MPS 9999 SCT020 29/27 Q1006 NOSIG
Conditions at: ZJSY (SANYA/FENGHUANG , CN) observed 1600 UTC 16 June 2019
Temperature: 29.0°C (84°F)
Dewpoint: 27.0°C (81°F) [RH = 89%]
Pressure (altimeter): 29.70 inches Hg (1006.0 mb)
Winds: calm
Visibility: 6 or more miles (10+ km)
Ceiling: at least 12,000 feet AGL
Clouds: scattered clouds at 2000 feet AGL
Weather: no significant weather observed at this time

METAR text: ZJSY 161500Z 34002MPS 270V040 9999 SCT020 29/26 Q1005 NOSIG
Conditions at: ZJSY (SANYA/FENGHUANG , CN) observed 1500 UTC 16 June 2019
Temperature: 29.0°C (84°F)
Dewpoint: 26.0°C (79°F) [RH = 84%]
Pressure (altimeter): 29.68 inches Hg (1005.0 mb)
Winds: from the NNW (340 degrees) at 5 MPH (4 knots; 2.1 m/s)
Visibility: 6 or more miles (10+ km)
Ceiling: at least 12,000 feet AGL
Clouds: scattered clouds at 2000 feet AGL
Weather: no significant weather observed at this time

METAR text: ZJSY 161400Z 23001MPS 9999 FEW020 29/26 Q1005 NOSIG
Conditions at: ZJSY (SANYA/FENGHUANG , CN) observed 1400 UTC 16 June 2019
Temperature: 29.0°C (84°F)
Dewpoint: 26.0°C (79°F) [RH = 84%]
Pressure (altimeter): 29.68 inches Hg (1005.0 mb)
Winds: from the SW (230 degrees) at 2 MPH (2 knots; 1.0 m/s)
Visibility: 6 or more miles (10+ km)
Ceiling: at least 12,000 feet AGL
Clouds: few clouds at 2000 feet AGL
Weather: no significant weather observed at this time

METAR text: ZJSY 161300Z 10002MPS 060V120 9999 SCT020 29/27 Q1006 NOSIG
Conditions at: ZJSY (SANYA/FENGHUANG , CN) observed 1300 UTC 16 June 2019
Temperature: 29.0°C (84°F)
Dewpoint: 27.0°C (81°F) [RH = 89%]
Pressure (altimeter): 29.70 inches Hg (1006.0 mb)
Winds: from the E (100 degrees) at 5 MPH (4 knots; 2.1 m/s)
Visibility: 6 or more miles (10+ km)
Ceiling: at least 12,000 feet AGL
Clouds: scattered clouds at 2000 feet AGL
Weather: no significant weather observed at this time

METAR text: ZJSY 161200Z 12003MPS 090V160 9999 SCT020 FEW030CB 29/27 Q1005 NOSIG
Conditions at: ZJSY (SANYA/FENGHUANG , CN) observed 1200 UTC 16 June 2019
Temperature: 29.0°C (84°F)
Dewpoint: 27.0°C (81°F) [RH = 89%]
Pressure (altimeter): 29.68 inches Hg (1005.0 mb)
Winds: from the ESE (120 degrees) at 7 MPH (6 knots; 3.1 m/s)
Visibility: 6 or more miles (10+ km)
Ceiling: at least 12,000 feet AGL
Clouds: scattered clouds at 2000 feet AGL
few clouds at 3000 feet AGL
Weather: no significant weather observed at this time

METAR text: ZJSY 161100Z 13003MPS 110V200 9999 SCT018 29/26 Q1005 NOSIG
Conditions at: ZJSY (SANYA/FENGHUANG , CN) observed 1100 UTC 16 June 2019
Temperature: 29.0°C (84°F)
Dewpoint: 26.0°C (79°F) [RH = 84%]
Pressure (altimeter): 29.68 inches Hg (1005.0 mb)
Winds: from the SE (130 degrees) at 7 MPH (6 knots; 3.1 m/s)
Visibility: 6 or more miles (10+ km)
Ceiling: at least 12,000 feet AGL
Clouds: scattered clouds at 1800 feet AGL
Weather: no significant weather observed at this time

METAR text: ZJSY 161000Z 15003MPS 120V180 CAVOK 29/26 Q1004 NOSIG
Conditions at: ZJSY (SANYA/FENGHUANG , CN) observed 1000 UTC 16 June 2019
Temperature: 29.0°C (84°F)
Dewpoint: 26.0°C (79°F) [RH = 84%]
Pressure (altimeter): 29.65 inches Hg (1004.0 mb)
Winds: from the SSE (150 degrees) at 7 MPH (6 knots; 3.1 m/s)
Visibility: 6 or more miles (10+ km)
Ceiling: ceiling and visibility are OK
Clouds: unknown
Weather: no significant weather observed at this time

METAR text: ZJSY 160900Z 16002MPS 110V230 9999 FEW020 31/26 Q1003 NOSIG
Conditions at: ZJSY (SANYA/FENGHUANG , CN) observed 0900 UTC 16 June 2019
Temperature: 31.0°C (88°F)
Dewpoint: 26.0°C (79°F) [RH = 75%]
Pressure (altimeter): 29.62 inches Hg (1003.0 mb)
Winds: from the SSE (160 degrees) at 5 MPH (4 knots; 2.1 m/s)
Visibility: 6 or more miles (10+ km)
Ceiling: at least 12,000 feet AGL
Clouds: few clouds at 2000 feet AGL
Weather: no significant weather observed at this time

METAR text: ZJSY 160800Z 16002MPS 120V210 9999 FEW020 31/26 Q1003 NOSIG
Conditions at: ZJSY (SANYA/FENGHUANG , CN) observed 0800 UTC 16 June 2019
Temperature: 31.0°C (88°F)
Dewpoint: 26.0°C (79°F) [RH = 75%]
Pressure (altimeter): 29.62 inches Hg (1003.0 mb)
Winds: from the SSE (160 degrees) at 5 MPH (4 knots; 2.1 m/s)
Visibility: 6 or more miles (10+ km)
Ceiling: at least 12,000 feet AGL
Clouds: few clouds at 2000 feet AGL
Weather: no significant weather observed at this time

METAR text: ZJSY 160700Z VRB01MPS 9999 FEW020 31/26 Q1003 NOSIG
Conditions at: ZJSY (SANYA/FENGHUANG , CN) observed 0700 UTC 16 June 2019
Temperature: 31.0°C (88°F)
Dewpoint: 26.0°C (79°F) [RH = 75%]
Pressure (altimeter): 29.62 inches Hg (1003.0 mb)
Winds: variable direction winds at 2 MPH (2 knots; 1.0 m/s)
Visibility: 6 or more miles (10+ km)
Ceiling: at least 12,000 feet AGL
Clouds: few clouds at 2000 feet AGL
Weather: no significant weather observed at this time

METAR text: ZJSY 160600Z 22001MPS 9999 -RA FEW018 SCT040 30/26 Q1004 NOSIG
Conditions at: ZJSY (SANYA/FENGHUANG , CN) observed 0600 UTC 16 June 2019
Temperature: 30.0°C (86°F)
Dewpoint: 26.0°C (79°F) [RH = 79%]
Pressure (altimeter): 29.65 inches Hg (1004.0 mb)
Winds: from the SW (220 degrees) at 2 MPH (2 knots; 1.0 m/s)
Visibility: 6 or more miles (10+ km)
Ceiling: at least 12,000 feet AGL
Clouds: few clouds at 1800 feet AGL
scattered clouds at 4000 feet AGL
Weather: -RA  (light rain)

METAR text: ZJSY 160500Z 22002MPS 180V260 9999 FEW018 SCT040 30/26 Q1004 NOSIG
Conditions at: ZJSY (SANYA/FENGHUANG , CN) observed 0500 UTC 16 June 2019
Temperature: 30.0°C (86°F)
Dewpoint: 26.0°C (79°F) [RH = 79%]
Pressure (altimeter): 29.65 inches Hg (1004.0 mb)
Winds: from the SW (220 degrees) at 5 MPH (4 knots; 2.1 m/s)
Visibility: 6 or more miles (10+ km)
Ceiling: at least 12,000 feet AGL
Clouds: few clouds at 1800 feet AGL
scattered clouds at 4000 feet AGL
Weather: no significant weather observed at this time

METAR text: ZJSY 160400Z VRB01MPS 9999 -RA SCT040 30/28 Q1004 NOSIG
Conditions at: ZJSY (SANYA/FENGHUANG , CN) observed 0400 UTC 16 June 2019
Temperature: 30.0°C (86°F)
Dewpoint: 28.0°C (82°F) [RH = 89%]
Pressure (altimeter): 29.65 inches Hg (1004.0 mb)
Winds: variable direction winds at 2 MPH (2 knots; 1.0 m/s)
Visibility: 6 or more miles (10+ km)
Ceiling: at least 12,000 feet AGL
Clouds: scattered clouds at 4000 feet AGL
Weather: -RA  (light rain)

METAR text: ZJSY 160300Z 29003MPS 260V350 9999 -SHRA FEW040 29/27 Q1005 RETS NOSIG
Conditions at: ZJSY (SANYA/FENGHUANG , CN) observed 0300 UTC 16 June 2019
Temperature: 29.0°C (84°F)
Dewpoint: 27.0°C (81°F) [RH = 89%]
Pressure (altimeter): 29.68 inches Hg (1005.0 mb)
Winds: from the WNW (290 degrees) at 7 MPH (6 knots; 3.1 m/s)
Visibility: 6 or more miles (10+ km)
Ceiling: at least 12,000 feet AGL
Clouds: few clouds at 4000 feet AGL
Weather: -SHRA  (light rain showers)

METAR text: ZJSY 160200Z 24003MPS 9999 TS SCT015 FEW028CB 30/27 Q1005 BECMG NSW
Conditions at: ZJSY (SANYA/FENGHUANG , CN) observed 0200 UTC 16 June 2019
Temperature: 30.0°C (86°F)
Dewpoint: 27.0°C (81°F) [RH = 84%]
Pressure (altimeter): 29.68 inches Hg (1005.0 mb)
Winds: from the WSW (240 degrees) at 7 MPH (6 knots; 3.1 m/s)
Visibility: 6 or more miles (10+ km)
Ceiling: at least 12,000 feet AGL
Clouds: scattered clouds at 1500 feet AGL
few clouds at 2800 feet AGL
Weather: TS  (thunderstorm)

METAR text: ZJSY 160100Z 23002MPS 190V270 9999 BKN015 FEW026CB 30/27 Q1004 NOSIG
Conditions at: ZJSY (SANYA/FENGHUANG , CN) observed 0100 UTC 16 June 2019
Temperature: 30.0°C (86°F)
Dewpoint: 27.0°C (81°F) [RH = 84%]
Pressure (altimeter): 29.65 inches Hg (1004.0 mb)
Winds: from the SW (230 degrees) at 5 MPH (4 knots; 2.1 m/s)
Visibility: 6 or more miles (10+ km)
Ceiling: 1500 feet AGL
Clouds: broken clouds at 1500 feet AGL
few clouds at 2600 feet AGL
Weather: no significant weather observed at this time

METAR text: ZJSY 160000Z VRB01MPS 9999 FEW015 30/27 Q1004 NOSIG
Conditions at: ZJSY (SANYA/FENGHUANG , CN) observed 0000 UTC 16 June 2019
Temperature: 30.0°C (86°F)
Dewpoint: 27.0°C (81°F) [RH = 84%]
Pressure (altimeter): 29.65 inches Hg (1004.0 mb)
Winds: variable direction winds at 2 MPH (2 knots; 1.0 m/s)
Visibility: 6 or more miles (10+ km)
Ceiling: at least 12,000 feet AGL
Clouds: few clouds at 1500 feet AGL
Weather: no significant weather observed at this time

METAR text: ZJSY 152300Z 00000MPS 9999 FEW015 29/26 Q1004 NOSIG
Conditions at: ZJSY (SANYA/FENGHUANG , CN) observed 2300 UTC 15 June 2019
Temperature: 29.0°C (84°F)
Dewpoint: 26.0°C (79°F) [RH = 84%]
Pressure (altimeter): 29.65 inches Hg (1004.0 mb)
Winds: calm
Visibility: 6 or more miles (10+ km)
Ceiling: at least 12,000 feet AGL
Clouds: few clouds at 1500 feet AGL
Weather: no significant weather observed at this time

Forecast for: ZJSY (SANYA/FENGHUANG , CN)
Text: TAF ZJSY 170903Z 1712/1812 16004MPS 9999 SCT020 TX33/1806Z TN27/1720Z
Forecast period: 1200 UTC 17 June 2019 to 1200 UTC 18 June 2019
Forecast type: FROM: standard forecast or significant change
Winds: from the SSE (160 degrees) at 9 MPH (8 knots; 4.1 m/s)
Visibility: 6 or more miles 10+ km)
Ceiling: at least 12,000 feet AGL
Clouds: scattered clouds at 2000 feet AGL
Weather: no significant weather forecast for this period
Text: TEMPO 1718/1724 -TSRA SCT016 FEW025CB BKN040
Forecast period: 1800 UTC 17 June 2019 to 0000 UTC 18 June 2019
Forecast type: TEMPORARY: The following changes expected for less than half the time period
Visibility: missing
Ceiling: 4000 feet AGL
Clouds: scattered clouds at 1600 feet AGL
few clouds at 2500 feet AGL
broken clouds at 4000 feet AGL
Weather: -TSRA  (light rain associated with thunderstorm(s))
Text: TEMPO 1805/1811 SCT016 FEW025CB
Forecast period: 0500 to 1100 UTC 18 June 2019
Forecast type: TEMPORARY: The following changes expected for less than half the time period
Visibility: missing
Ceiling: at least 12,000 feet AGL
Clouds: scattered clouds at 1600 feet AGL
few clouds at 2500 feet AGL
Weather: no significant weather forecast for this period